sensor_id;sensor_type;location;lat;lon;timestamp;P1;durP1;ratioP1;P2;durP2;ratioP2
55784;SDS011;41709;52.536;5.688;2023-07-29T00:01:19;3.33;;;2.78;;
55784;SDS011;41709;52.536;5.688;2023-07-29T00:03:45;3.78;;;3.00;;
55784;SDS011;41709;52.536;5.688;2023-07-29T00:06:11;4.82;;;3.28;;
55784;SDS011;41709;52.536;5.688;2023-07-29T00:08:36;4.85;;;2.88;;
55784;SDS011;41709;52.536;5.688;2023-07-29T00:11:02;5.40;;;2.90;;
55784;SDS011;41709;52.536;5.688;2023-07-29T00:13:27;3.40;;;3.10;;
55784;SDS011;41709;52.536;5.688;2023-07-29T00:15:54;4.20;;;2.97;;
55784;SDS011;41709;52.536;5.688;2023-07-29T00:18:20;6.07;;;3.10;;
55784;SDS011;41709;52.536;5.688;2023-07-29T00:20:46;3.45;;;2.60;;
55784;SDS011;41709;52.536;5.688;2023-07-29T00:23:12;3.33;;;2.92;;
55784;SDS011;41709;52.536;5.688;2023-07-29T00:25:37;3.20;;;2.80;;
55784;SDS011;41709;52.536;5.688;2023-07-29T00:28:03;3.97;;;2.80;;
55784;SDS011;41709;52.536;5.688;2023-07-29T00:30:29;4.65;;;2.65;;
55784;SDS011;41709;52.536;5.688;2023-07-29T00:32:54;3.40;;;2.70;;
55784;SDS011;41709;52.536;5.688;2023-07-29T00:35:20;2.70;;;1.85;;
55784;SDS011;41709;52.536;5.688;2023-07-29T00:37:45;3.67;;;2.30;;
55784;SDS011;41709;52.536;5.688;2023-07-29T00:40:15;3.58;;;2.20;;
55784;SDS011;41709;52.536;5.688;2023-07-29T00:42:44;3.72;;;2.30;;
55784;SDS011;41709;52.536;5.688;2023-07-29T00:45:09;3.55;;;1.95;;
55784;SDS011;41709;52.536;5.688;2023-07-29T00:47:35;4.00;;;2.40;;
55784;SDS011;41709;52.536;5.688;2023-07-29T00:50:01;4.63;;;2.03;;
55784;SDS011;41709;52.536;5.688;2023-07-29T00:52:27;2.17;;;1.88;;
55784;SDS011;41709;52.536;5.688;2023-07-29T00:54:52;2.92;;;2.20;;
55784;SDS011;41709;52.536;5.688;2023-07-29T00:57:18;2.22;;;2.03;;
55784;SDS011;41709;52.536;5.688;2023-07-29T00:59:45;2.97;;;2.50;;
55784;SDS011;41709;52.536;5.688;2023-07-29T01:02:11;3.60;;;2.08;;
55784;SDS011;41709;52.536;5.688;2023-07-29T01:04:37;2.28;;;1.90;;
55784;SDS011;41709;52.536;5.688;2023-07-29T01:10:03;3.25;;;2.00;;
55784;SDS011;41709;52.536;5.688;2023-07-29T01:15:22;2.60;;;1.70;;
55784;SDS011;41709;52.536;5.688;2023-07-29T01:17:56;3.40;;;2.28;;
55784;SDS011;41709;52.536;5.688;2023-07-29T01:20:29;2.42;;;1.70;;
55784;SDS011;41709;52.536;5.688;2023-07-29T01:22:58;2.88;;;1.92;;
55784;SDS011;41709;52.536;5.688;2023-07-29T01:25:24;2.08;;;1.70;;
55784;SDS011;41709;52.536;5.688;2023-07-29T01:27:51;2.05;;;1.70;;
55784;SDS011;41709;52.536;5.688;2023-07-29T01:30:17;1.70;;;1.33;;
55784;SDS011;41709;52.536;5.688;2023-07-29T01:33:03;2.20;;;1.48;;
55784;SDS011;41709;52.536;5.688;2023-07-29T01:38:22;2.88;;;2.05;;
55784;SDS011;41709;52.536;5.688;2023-07-29T01:40:56;1.60;;;1.40;;
55784;SDS011;41709;52.536;5.688;2023-07-29T01:43:26;2.60;;;1.67;;
55784;SDS011;41709;52.536;5.688;2023-07-29T01:45:52;2.70;;;1.50;;
55784;SDS011;41709;52.536;5.688;2023-07-29T01:48:18;2.65;;;1.60;;
55784;SDS011;41709;52.536;5.688;2023-07-29T01:50:44;2.33;;;1.30;;
55784;SDS011;41709;52.536;5.688;2023-07-29T01:53:09;2.25;;;1.10;;
55784;SDS011;41709;52.536;5.688;2023-07-29T01:55:35;3.92;;;1.42;;
55784;SDS011;41709;52.536;5.688;2023-07-29T01:58:00;2.33;;;1.05;;
55784;SDS011;41709;52.536;5.688;2023-07-29T02:00:26;3.40;;;1.23;;
55784;SDS011;41709;52.536;5.688;2023-07-29T02:02:52;1.98;;;1.42;;
55784;SDS011;41709;52.536;5.688;2023-07-29T02:05:17;2.00;;;1.17;;
55784;SDS011;41709;52.536;5.688;2023-07-29T02:07:43;1.88;;;1.02;;
55784;SDS011;41709;52.536;5.688;2023-07-29T02:10:08;2.03;;;1.20;;
55784;SDS011;41709;52.536;5.688;2023-07-29T02:12:34;3.08;;;1.13;;
55784;SDS011;41709;52.536;5.688;2023-07-29T02:15:00;2.35;;;1.10;;
55784;SDS011;41709;52.536;5.688;2023-07-29T02:17:25;2.22;;;1.25;;
55784;SDS011;41709;52.536;5.688;2023-07-29T02:19:51;1.65;;;0.95;;
55784;SDS011;41709;52.536;5.688;2023-07-29T02:22:17;1.20;;;0.80;;
55784;SDS011;41709;52.536;5.688;2023-07-29T02:24:43;1.25;;;0.90;;
55784;SDS011;41709;52.536;5.688;2023-07-29T02:27:09;2.47;;;1.02;;
55784;SDS011;41709;52.536;5.688;2023-07-29T02:29:35;1.42;;;0.98;;
55784;SDS011;41709;52.536;5.688;2023-07-29T02:32:01;2.13;;;1.02;;
55784;SDS011;41709;52.536;5.688;2023-07-29T02:34:28;2.70;;;0.80;;
55784;SDS011;41709;52.536;5.688;2023-07-29T02:36:54;2.13;;;1.33;;
55784;SDS011;41709;52.536;5.688;2023-07-29T02:39:19;4.13;;;1.15;;
55784;SDS011;41709;52.536;5.688;2023-07-29T02:41:45;1.60;;;0.70;;
55784;SDS011;41709;52.536;5.688;2023-07-29T02:44:10;2.10;;;1.00;;
55784;SDS011;41709;52.536;5.688;2023-07-29T02:46:36;2.65;;;0.82;;
55784;SDS011;41709;52.536;5.688;2023-07-29T02:49:02;2.40;;;0.95;;
55784;SDS011;41709;52.536;5.688;2023-07-29T02:51:29;2.42;;;1.45;;
55784;SDS011;41709;52.536;5.688;2023-07-29T02:53:55;1.42;;;0.88;;
55784;SDS011;41709;52.536;5.688;2023-07-29T02:56:20;1.25;;;1.08;;
55784;SDS011;41709;52.536;5.688;2023-07-29T02:58:46;1.40;;;1.15;;
55784;SDS011;41709;52.536;5.688;2023-07-29T03:01:12;4.90;;;1.75;;
55784;SDS011;41709;52.536;5.688;2023-07-29T03:03:37;3.63;;;1.10;;
55784;SDS011;41709;52.536;5.688;2023-07-29T03:06:07;5.53;;;0.98;;
55784;SDS011;41709;52.536;5.688;2023-07-29T03:08:35;3.30;;;1.17;;
55784;SDS011;41709;52.536;5.688;2023-07-29T03:11:05;2.65;;;1.10;;
55784;SDS011;41709;52.536;5.688;2023-07-29T03:13:32;3.95;;;1.10;;
55784;SDS011;41709;52.536;5.688;2023-07-29T03:16:07;4.22;;;1.98;;
55784;SDS011;41709;52.536;5.688;2023-07-29T03:18:34;1.92;;;1.00;;
55784;SDS011;41709;52.536;5.688;2023-07-29T03:21:00;2.03;;;0.90;;
55784;SDS011;41709;52.536;5.688;2023-07-29T03:23:27;1.50;;;1.25;;
55784;SDS011;41709;52.536;5.688;2023-07-29T03:25:57;1.83;;;0.98;;
55784;SDS011;41709;52.536;5.688;2023-07-29T03:28:27;3.22;;;1.23;;
55784;SDS011;41709;52.536;5.688;2023-07-29T03:30:54;1.95;;;1.33;;
55784;SDS011;41709;52.536;5.688;2023-07-29T03:33:20;3.63;;;1.67;;
55784;SDS011;41709;52.536;5.688;2023-07-29T03:35:46;2.78;;;1.58;;
55784;SDS011;41709;52.536;5.688;2023-07-29T03:38:12;3.28;;;1.63;;
55784;SDS011;41709;52.536;5.688;2023-07-29T03:40:38;4.63;;;2.00;;
55784;SDS011;41709;52.536;5.688;2023-07-29T03:43:04;6.18;;;1.63;;
55784;SDS011;41709;52.536;5.688;2023-07-29T03:45:30;2.25;;;1.50;;
55784;SDS011;41709;52.536;5.688;2023-07-29T03:47:56;6.18;;;2.15;;
55784;SDS011;41709;52.536;5.688;2023-07-29T03:50:22;4.25;;;1.80;;
55784;SDS011;41709;52.536;5.688;2023-07-29T03:52:47;4.13;;;1.73;;
55784;SDS011;41709;52.536;5.688;2023-07-29T03:55:13;3.47;;;2.10;;
55784;SDS011;41709;52.536;5.688;2023-07-29T03:57:38;3.45;;;2.08;;
55784;SDS011;41709;52.536;5.688;2023-07-29T04:00:04;4.72;;;2.70;;
55784;SDS011;41709;52.536;5.688;2023-07-29T04:02:31;6.57;;;2.22;;
55784;SDS011;41709;52.536;5.688;2023-07-29T04:04:56;7.88;;;3.22;;
55784;SDS011;41709;52.536;5.688;2023-07-29T04:07:22;3.95;;;2.20;;
55784;SDS011;41709;52.536;5.688;2023-07-29T04:09:47;6.55;;;2.65;;
55784;SDS011;41709;52.536;5.688;2023-07-29T04:12:14;6.05;;;2.47;;
55784;SDS011;41709;52.536;5.688;2023-07-29T04:14:40;4.72;;;2.60;;
55784;SDS011;41709;52.536;5.688;2023-07-29T04:17:06;6.90;;;2.97;;
55784;SDS011;41709;52.536;5.688;2023-07-29T04:19:32;3.33;;;2.30;;
55784;SDS011;41709;52.536;5.688;2023-07-29T04:21:58;5.68;;;2.85;;
55784;SDS011;41709;52.536;5.688;2023-07-29T04:24:24;5.10;;;2.50;;
55784;SDS011;41709;52.536;5.688;2023-07-29T04:26:50;5.80;;;2.53;;
55784;SDS011;41709;52.536;5.688;2023-07-29T04:29:15;5.60;;;2.75;;
55784;SDS011;41709;52.536;5.688;2023-07-29T04:31:41;5.63;;;2.72;;
55784;SDS011;41709;52.536;5.688;2023-07-29T04:34:07;4.95;;;2.40;;
55784;SDS011;41709;52.536;5.688;2023-07-29T04:36:33;6.50;;;3.22;;
55784;SDS011;41709;52.536;5.688;2023-07-29T04:38:58;7.57;;;2.60;;
55784;SDS011;41709;52.536;5.688;2023-07-29T04:41:24;4.95;;;2.90;;
55784;SDS011;41709;52.536;5.688;2023-07-29T04:43:50;5.78;;;3.00;;
55784;SDS011;41709;52.536;5.688;2023-07-29T04:46:15;7.13;;;3.10;;
55784;SDS011;41709;52.536;5.688;2023-07-29T04:48:41;5.65;;;2.95;;
55784;SDS011;41709;52.536;5.688;2023-07-29T04:51:06;5.00;;;2.67;;
55784;SDS011;41709;52.536;5.688;2023-07-29T04:53:32;6.78;;;2.70;;
55784;SDS011;41709;52.536;5.688;2023-07-29T04:55:59;5.50;;;2.88;;
55784;SDS011;41709;52.536;5.688;2023-07-29T04:58:25;6.03;;;3.00;;
55784;SDS011;41709;52.536;5.688;2023-07-29T05:00:53;4.30;;;2.83;;
55784;SDS011;41709;52.536;5.688;2023-07-29T05:03:19;8.40;;;3.75;;
55784;SDS011;41709;52.536;5.688;2023-07-29T05:05:45;6.60;;;3.28;;
55784;SDS011;41709;52.536;5.688;2023-07-29T05:08:10;7.97;;;3.45;;
55784;SDS011;41709;52.536;5.688;2023-07-29T05:10:36;6.85;;;3.03;;
55784;SDS011;41709;52.536;5.688;2023-07-29T05:13:01;9.27;;;3.53;;
55784;SDS011;41709;52.536;5.688;2023-07-29T05:15:27;4.53;;;3.10;;
55784;SDS011;41709;52.536;5.688;2023-07-29T05:17:53;6.43;;;3.10;;
55784;SDS011;41709;52.536;5.688;2023-07-29T05:20:18;6.07;;;3.72;;
55784;SDS011;41709;52.536;5.688;2023-07-29T05:22:44;8.15;;;3.88;;
55784;SDS011;41709;52.536;5.688;2023-07-29T05:25:09;6.38;;;3.35;;
55784;SDS011;41709;52.536;5.688;2023-07-29T05:27:35;5.95;;;3.75;;
55784;SDS011;41709;52.536;5.688;2023-07-29T05:30:00;5.55;;;3.05;;
55784;SDS011;41709;52.536;5.688;2023-07-29T05:32:26;8.45;;;3.13;;
55784;SDS011;41709;52.536;5.688;2023-07-29T05:34:52;4.93;;;3.50;;
55784;SDS011;41709;52.536;5.688;2023-07-29T05:37:17;5.13;;;3.05;;
55784;SDS011;41709;52.536;5.688;2023-07-29T05:39:43;6.85;;;3.28;;
55784;SDS011;41709;52.536;5.688;2023-07-29T05:42:08;6.38;;;3.42;;
55784;SDS011;41709;52.536;5.688;2023-07-29T05:44:34;4.93;;;3.17;;
55784;SDS011;41709;52.536;5.688;2023-07-29T05:47:00;5.65;;;3.00;;
55784;SDS011;41709;52.536;5.688;2023-07-29T05:49:25;6.75;;;3.00;;
55784;SDS011;41709;52.536;5.688;2023-07-29T05:51:51;8.25;;;2.75;;
55784;SDS011;41709;52.536;5.688;2023-07-29T05:54:17;6.68;;;3.53;;
55784;SDS011;41709;52.536;5.688;2023-07-29T05:56:43;5.53;;;3.35;;
55784;SDS011;41709;52.536;5.688;2023-07-29T05:59:09;6.03;;;2.58;;
55784;SDS011;41709;52.536;5.688;2023-07-29T06:01:34;9.73;;;3.00;;
55784;SDS011;41709;52.536;5.688;2023-07-29T06:04:00;4.18;;;2.25;;
55784;SDS011;41709;52.536;5.688;2023-07-29T06:06:25;4.05;;;2.58;;
55784;SDS011;41709;52.536;5.688;2023-07-29T06:08:51;11.52;;;4.25;;
55784;SDS011;41709;52.536;5.688;2023-07-29T06:11:17;5.40;;;2.92;;
55784;SDS011;41709;52.536;5.688;2023-07-29T06:13:43;4.32;;;2.60;;
55784;SDS011;41709;52.536;5.688;2023-07-29T06:16:08;3.15;;;2.70;;
55784;SDS011;41709;52.536;5.688;2023-07-29T06:18:34;3.80;;;2.70;;
55784;SDS011;41709;52.536;5.688;2023-07-29T06:20:59;3.95;;;2.42;;
55784;SDS011;41709;52.536;5.688;2023-07-29T06:23:25;4.82;;;2.60;;
55784;SDS011;41709;52.536;5.688;2023-07-29T06:25:51;5.80;;;2.70;;
55784;SDS011;41709;52.536;5.688;2023-07-29T06:28:16;4.78;;;2.72;;
55784;SDS011;41709;52.536;5.688;2023-07-29T06:30:42;7.90;;;3.20;;
55784;SDS011;41709;52.536;5.688;2023-07-29T06:33:07;7.03;;;2.95;;
55784;SDS011;41709;52.536;5.688;2023-07-29T06:35:33;5.50;;;2.75;;
55784;SDS011;41709;52.536;5.688;2023-07-29T06:37:59;4.82;;;2.63;;
55784;SDS011;41709;52.536;5.688;2023-07-29T06:40:25;5.20;;;2.60;;
55784;SDS011;41709;52.536;5.688;2023-07-29T06:42:50;6.00;;;2.92;;
55784;SDS011;41709;52.536;5.688;2023-07-29T06:45:16;5.35;;;2.50;;
55784;SDS011;41709;52.536;5.688;2023-07-29T06:47:42;7.05;;;2.83;;
55784;SDS011;41709;52.536;5.688;2023-07-29T06:50:08;5.65;;;2.65;;
55784;SDS011;41709;52.536;5.688;2023-07-29T06:52:33;5.65;;;3.40;;
55784;SDS011;41709;52.536;5.688;2023-07-29T06:54:59;6.30;;;2.67;;
55784;SDS011;41709;52.536;5.688;2023-07-29T06:57:25;3.97;;;2.35;;
55784;SDS011;41709;52.536;5.688;2023-07-29T06:59:50;4.75;;;3.10;;
55784;SDS011;41709;52.536;5.688;2023-07-29T07:02:16;5.95;;;2.97;;
55784;SDS011;41709;52.536;5.688;2023-07-29T07:04:41;5.38;;;3.15;;
55784;SDS011;41709;52.536;5.688;2023-07-29T07:07:07;5.18;;;2.60;;
55784;SDS011;41709;52.536;5.688;2023-07-29T07:09:33;5.30;;;3.33;;
55784;SDS011;41709;52.536;5.688;2023-07-29T07:11:58;4.18;;;2.40;;
55784;SDS011;41709;52.536;5.688;2023-07-29T07:14:24;4.45;;;2.50;;
55784;SDS011;41709;52.536;5.688;2023-07-29T07:16:49;5.93;;;3.00;;
55784;SDS011;41709;52.536;5.688;2023-07-29T07:19:15;4.65;;;2.58;;
55784;SDS011;41709;52.536;5.688;2023-07-29T07:21:41;4.30;;;2.25;;
55784;SDS011;41709;52.536;5.688;2023-07-29T07:24:06;4.97;;;2.55;;
55784;SDS011;41709;52.536;5.688;2023-07-29T07:26:32;7.30;;;2.80;;
55784;SDS011;41709;52.536;5.688;2023-07-29T07:28:57;6.28;;;2.70;;
55784;SDS011;41709;52.536;5.688;2023-07-29T07:31:23;6.15;;;2.80;;
55784;SDS011;41709;52.536;5.688;2023-07-29T07:33:49;5.18;;;2.45;;
55784;SDS011;41709;52.536;5.688;2023-07-29T07:36:14;5.00;;;2.63;;
55784;SDS011;41709;52.536;5.688;2023-07-29T07:38:40;6.18;;;2.30;;
55784;SDS011;41709;52.536;5.688;2023-07-29T07:41:06;7.22;;;2.60;;
55784;SDS011;41709;52.536;5.688;2023-07-29T07:43:32;3.10;;;1.98;;
55784;SDS011;41709;52.536;5.688;2023-07-29T07:45:58;7.75;;;2.85;;
55784;SDS011;41709;52.536;5.688;2023-07-29T07:48:25;8.55;;;3.00;;
55784;SDS011;41709;52.536;5.688;2023-07-29T07:50:51;6.03;;;2.30;;
55784;SDS011;41709;52.536;5.688;2023-07-29T07:53:17;11.63;;;2.70;;
55784;SDS011;41709;52.536;5.688;2023-07-29T07:55:43;5.20;;;1.98;;
55784;SDS011;41709;52.536;5.688;2023-07-29T07:58:08;3.92;;;2.38;;
55784;SDS011;41709;52.536;5.688;2023-07-29T08:00:34;4.15;;;2.78;;
55784;SDS011;41709;52.536;5.688;2023-07-29T08:02:59;5.28;;;1.92;;
55784;SDS011;41709;52.536;5.688;2023-07-29T08:05:25;3.40;;;2.17;;
55784;SDS011;41709;52.536;5.688;2023-07-29T08:07:50;7.40;;;2.33;;
55784;SDS011;41709;52.536;5.688;2023-07-29T08:10:16;5.93;;;2.42;;
55784;SDS011;41709;52.536;5.688;2023-07-29T08:12:41;4.05;;;2.15;;
55784;SDS011;41709;52.536;5.688;2023-07-29T08:15:07;4.55;;;2.55;;
55784;SDS011;41709;52.536;5.688;2023-07-29T08:17:33;7.05;;;2.65;;
55784;SDS011;41709;52.536;5.688;2023-07-29T08:19:58;4.30;;;2.50;;
55784;SDS011;41709;52.536;5.688;2023-07-29T08:22:24;6.20;;;2.22;;
55784;SDS011;41709;52.536;5.688;2023-07-29T08:24:49;6.50;;;2.13;;
55784;SDS011;41709;52.536;5.688;2023-07-29T08:27:15;3.78;;;2.05;;
55784;SDS011;41709;52.536;5.688;2023-07-29T08:29:41;4.57;;;2.15;;
55784;SDS011;41709;52.536;5.688;2023-07-29T08:32:06;5.97;;;2.35;;
55784;SDS011;41709;52.536;5.688;2023-07-29T08:34:32;3.63;;;2.13;;
55784;SDS011;41709;52.536;5.688;2023-07-29T08:36:57;5.70;;;1.85;;
55784;SDS011;41709;52.536;5.688;2023-07-29T08:39:25;5.05;;;2.35;;
55784;SDS011;41709;52.536;5.688;2023-07-29T08:44:24;12.52;;;6.25;;
55784;SDS011;41709;52.536;5.688;2023-07-29T08:46:51;19.38;;;4.05;;
55784;SDS011;41709;52.536;5.688;2023-07-29T08:49:19;5.78;;;3.95;;
55784;SDS011;41709;52.536;5.688;2023-07-29T08:51:46;7.45;;;2.40;;
55784;SDS011;41709;52.536;5.688;2023-07-29T08:54:13;4.47;;;1.90;;
55784;SDS011;41709;52.536;5.688;2023-07-29T08:56:40;4.53;;;1.90;;
55784;SDS011;41709;52.536;5.688;2023-07-29T08:59:07;2.70;;;1.70;;
55784;SDS011;41709;52.536;5.688;2023-07-29T09:01:36;3.45;;;1.92;;
55784;SDS011;41709;52.536;5.688;2023-07-29T09:04:03;3.47;;;2.00;;
55784;SDS011;41709;52.536;5.688;2023-07-29T09:06:29;5.03;;;1.92;;
55784;SDS011;41709;52.536;5.688;2023-07-29T09:08:55;3.25;;;1.88;;
55784;SDS011;41709;52.536;5.688;2023-07-29T09:11:21;4.13;;;2.20;;
55784;SDS011;41709;52.536;5.688;2023-07-29T09:13:48;2.60;;;1.70;;
55784;SDS011;41709;52.536;5.688;2023-07-29T09:16:13;3.33;;;2.38;;
55784;SDS011;41709;52.536;5.688;2023-07-29T09:18:39;3.67;;;2.22;;
55784;SDS011;41709;52.536;5.688;2023-07-29T09:21:05;4.47;;;2.20;;
55784;SDS011;41709;52.536;5.688;2023-07-29T09:23:38;2.60;;;2.40;;
55784;SDS011;41709;52.536;5.688;2023-07-29T09:26:07;6.82;;;3.10;;
55784;SDS011;41709;52.536;5.688;2023-07-29T09:28:33;8.40;;;2.25;;
55784;SDS011;41709;52.536;5.688;2023-07-29T09:31:00;5.43;;;2.28;;
55784;SDS011;41709;52.536;5.688;2023-07-29T09:33:26;5.10;;;2.10;;
55784;SDS011;41709;52.536;5.688;2023-07-29T09:35:52;5.32;;;2.35;;
55784;SDS011;41709;52.536;5.688;2023-07-29T09:38:17;4.53;;;2.70;;
55784;SDS011;41709;52.536;5.688;2023-07-29T09:40:43;3.67;;;2.30;;
55784;SDS011;41709;52.536;5.688;2023-07-29T09:43:10;3.35;;;2.28;;
55784;SDS011;41709;52.536;5.688;2023-07-29T09:45:36;5.32;;;2.53;;
55784;SDS011;41709;52.536;5.688;2023-07-29T09:48:03;5.00;;;2.10;;
55784;SDS011;41709;52.536;5.688;2023-07-29T09:50:34;2.92;;;2.17;;
55784;SDS011;41709;52.536;5.688;2023-07-29T09:53:02;5.40;;;1.67;;
55784;SDS011;41709;52.536;5.688;2023-07-29T09:55:28;3.80;;;1.80;;
55784;SDS011;41709;52.536;5.688;2023-07-29T09:57:58;3.47;;;1.48;;
55784;SDS011;41709;52.536;5.688;2023-07-29T10:00:32;4.82;;;1.50;;
55784;SDS011;41709;52.536;5.688;2023-07-29T10:02:58;6.00;;;1.52;;
55784;SDS011;41709;52.536;5.688;2023-07-29T10:05:27;3.20;;;1.20;;
55784;SDS011;41709;52.536;5.688;2023-07-29T10:07:54;1.80;;;1.10;;
55784;SDS011;41709;52.536;5.688;2023-07-29T10:10:21;2.80;;;1.55;;
55784;SDS011;41709;52.536;5.688;2023-07-29T10:12:46;2.67;;;1.17;;
55784;SDS011;41709;52.536;5.688;2023-07-29T10:15:12;4.93;;;1.58;;
55784;SDS011;41709;52.536;5.688;2023-07-29T10:17:39;1.58;;;1.30;;
55784;SDS011;41709;52.536;5.688;2023-07-29T10:20:05;6.15;;;1.50;;
55784;SDS011;41709;52.536;5.688;2023-07-29T10:22:37;4.03;;;2.08;;
55784;SDS011;41709;52.536;5.688;2023-07-29T10:25:05;4.80;;;1.42;;
55784;SDS011;41709;52.536;5.688;2023-07-29T10:27:44;4.03;;;1.45;;
55784;SDS011;41709;52.536;5.688;2023-07-29T10:30:18;6.68;;;1.35;;
55784;SDS011;41709;52.536;5.688;2023-07-29T10:32:45;3.58;;;1.73;;
55784;SDS011;41709;52.536;5.688;2023-07-29T10:35:13;2.72;;;1.05;;
55784;SDS011;41709;52.536;5.688;2023-07-29T10:37:40;5.78;;;1.80;;
55784;SDS011;41709;52.536;5.688;2023-07-29T10:40:07;3.63;;;1.50;;
55784;SDS011;41709;52.536;5.688;2023-07-29T10:42:34;3.42;;;1.10;;
55784;SDS011;41709;52.536;5.688;2023-07-29T10:45:02;5.05;;;1.42;;
55784;SDS011;41709;52.536;5.688;2023-07-29T10:47:42;4.20;;;1.77;;
55784;SDS011;41709;52.536;5.688;2023-07-29T10:50:16;2.92;;;1.23;;
55784;SDS011;41709;52.536;5.688;2023-07-29T10:52:43;3.20;;;1.63;;
55784;SDS011;41709;52.536;5.688;2023-07-29T10:55:26;4.80;;;2.58;;
55784;SDS011;41709;52.536;5.688;2023-07-29T10:58:15;3.13;;;1.33;;
55784;SDS011;41709;52.536;5.688;2023-07-29T11:00:44;6.82;;;2.03;;
55784;SDS011;41709;52.536;5.688;2023-07-29T11:03:11;7.95;;;2.10;;
55784;SDS011;41709;52.536;5.688;2023-07-29T11:05:46;6.78;;;1.83;;
55784;SDS011;41709;52.536;5.688;2023-07-29T11:08:21;5.63;;;1.42;;
55784;SDS011;41709;52.536;5.688;2023-07-29T11:11:07;4.43;;;1.38;;
55784;SDS011;41709;52.536;5.688;2023-07-29T11:13:37;3.20;;;1.67;;
55784;SDS011;41709;52.536;5.688;2023-07-29T11:16:04;3.15;;;1.60;;
55784;SDS011;41709;52.536;5.688;2023-07-29T11:18:31;5.68;;;1.70;;
55784;SDS011;41709;52.536;5.688;2023-07-29T11:20:59;6.32;;;1.55;;
55784;SDS011;41709;52.536;5.688;2023-07-29T11:23:32;4.75;;;1.40;;
55784;SDS011;41709;52.536;5.688;2023-07-29T11:26:00;3.90;;;1.23;;
55784;SDS011;41709;52.536;5.688;2023-07-29T11:28:26;3.00;;;1.05;;
55784;SDS011;41709;52.536;5.688;2023-07-29T11:30:53;3.17;;;1.25;;
55784;SDS011;41709;52.536;5.688;2023-07-29T11:33:24;4.85;;;1.35;;
55784;SDS011;41709;52.536;5.688;2023-07-29T11:35:52;5.82;;;1.33;;
55784;SDS011;41709;52.536;5.688;2023-07-29T11:38:19;6.28;;;2.10;;
55784;SDS011;41709;52.536;5.688;2023-07-29T11:40:58;6.10;;;1.85;;
55784;SDS011;41709;52.536;5.688;2023-07-29T11:43:25;2.45;;;1.23;;
55784;SDS011;41709;52.536;5.688;2023-07-29T11:45:52;3.42;;;1.75;;
55784;SDS011;41709;52.536;5.688;2023-07-29T11:48:18;4.45;;;1.75;;
55784;SDS011;41709;52.536;5.688;2023-07-29T11:50:51;3.47;;;1.23;;
55784;SDS011;41709;52.536;5.688;2023-07-29T11:53:16;5.05;;;1.80;;
55784;SDS011;41709;52.536;5.688;2023-07-29T11:55:42;3.33;;;1.25;;
55784;SDS011;41709;52.536;5.688;2023-07-29T11:58:07;2.80;;;1.45;;
55784;SDS011;41709;52.536;5.688;2023-07-29T12:00:33;2.40;;;1.25;;
55784;SDS011;41709;52.536;5.688;2023-07-29T12:02:59;4.10;;;1.10;;
55784;SDS011;41709;52.536;5.688;2023-07-29T12:05:25;4.15;;;1.33;;
55784;SDS011;41709;52.536;5.688;2023-07-29T12:07:50;2.17;;;1.20;;
55784;SDS011;41709;52.536;5.688;2023-07-29T12:10:16;3.83;;;1.65;;
55784;SDS011;41709;52.536;5.688;2023-07-29T12:12:44;5.90;;;1.58;;
55784;SDS011;41709;52.536;5.688;2023-07-29T12:15:11;8.18;;;6.03;;
55784;SDS011;41709;52.536;5.688;2023-07-29T12:17:40;5.20;;;3.35;;
55784;SDS011;41709;52.536;5.688;2023-07-29T12:20:07;3.67;;;1.33;;
55784;SDS011;41709;52.536;5.688;2023-07-29T12:22:36;3.63;;;1.70;;
55784;SDS011;41709;52.536;5.688;2023-07-29T12:25:02;5.15;;;2.28;;
55784;SDS011;41709;52.536;5.688;2023-07-29T12:27:29;5.60;;;2.28;;
55784;SDS011;41709;52.536;5.688;2023-07-29T12:29:56;4.20;;;1.52;;
55784;SDS011;41709;52.536;5.688;2023-07-29T12:34:53;3.20;;;1.33;;
55784;SDS011;41709;52.536;5.688;2023-07-29T12:37:18;3.38;;;1.40;;
55784;SDS011;41709;52.536;5.688;2023-07-29T12:39:44;10.70;;;3.83;;
55784;SDS011;41709;52.536;5.688;2023-07-29T12:42:10;3.25;;;1.52;;
55784;SDS011;41709;52.536;5.688;2023-07-29T12:44:36;2.42;;;1.15;;
55784;SDS011;41709;52.536;5.688;2023-07-29T12:47:04;6.63;;;1.40;;
55784;SDS011;41709;52.536;5.688;2023-07-29T12:49:30;3.45;;;1.75;;
55784;SDS011;41709;52.536;5.688;2023-07-29T12:51:57;4.32;;;2.03;;
55784;SDS011;41709;52.536;5.688;2023-07-29T12:54:23;4.22;;;2.72;;
55784;SDS011;41709;52.536;5.688;2023-07-29T12:56:48;4.07;;;2.40;;
55784;SDS011;41709;52.536;5.688;2023-07-29T12:59:14;2.83;;;2.50;;
55784;SDS011;41709;52.536;5.688;2023-07-29T13:01:40;2.78;;;2.58;;
55784;SDS011;41709;52.536;5.688;2023-07-29T13:04:05;3.28;;;2.80;;
55784;SDS011;41709;52.536;5.688;2023-07-29T13:06:31;4.20;;;2.40;;
55784;SDS011;41709;52.536;5.688;2023-07-29T13:08:57;3.83;;;2.90;;
55784;SDS011;41709;52.536;5.688;2023-07-29T13:11:22;3.13;;;2.83;;
55784;SDS011;41709;52.536;5.688;2023-07-29T13:13:49;3.22;;;2.92;;
55784;SDS011;41709;52.536;5.688;2023-07-29T13:16:15;4.60;;;2.67;;
55784;SDS011;41709;52.536;5.688;2023-07-29T13:18:40;2.80;;;2.15;;
55784;SDS011;41709;52.536;5.688;2023-07-29T13:21:07;3.83;;;2.47;;
55784;SDS011;41709;52.536;5.688;2023-07-29T13:23:33;3.38;;;1.83;;
55784;SDS011;41709;52.536;5.688;2023-07-29T13:25:59;2.63;;;1.30;;
55784;SDS011;41709;52.536;5.688;2023-07-29T13:28:24;1.52;;;1.10;;
55784;SDS011;41709;52.536;5.688;2023-07-29T13:30:50;2.75;;;1.50;;
55784;SDS011;41709;52.536;5.688;2023-07-29T13:33:16;3.03;;;1.50;;
55784;SDS011;41709;52.536;5.688;2023-07-29T13:35:41;2.72;;;1.33;;
55784;SDS011;41709;52.536;5.688;2023-07-29T13:38:07;2.78;;;1.27;;
55784;SDS011;41709;52.536;5.688;2023-07-29T13:40:33;2.30;;;1.10;;
55784;SDS011;41709;52.536;5.688;2023-07-29T13:42:59;3.90;;;1.65;;
55784;SDS011;41709;52.536;5.688;2023-07-29T13:45:24;1.38;;;1.27;;
55784;SDS011;41709;52.536;5.688;2023-07-29T13:47:50;1.75;;;0.80;;
55784;SDS011;41709;52.536;5.688;2023-07-29T13:50:16;1.73;;;0.77;;
55784;SDS011;41709;52.536;5.688;2023-07-29T13:52:43;1.38;;;0.70;;
55784;SDS011;41709;52.536;5.688;2023-07-29T13:55:09;1.70;;;0.50;;
55784;SDS011;41709;52.536;5.688;2023-07-29T13:57:35;2.75;;;0.68;;
55784;SDS011;41709;52.536;5.688;2023-07-29T14:00:00;1.25;;;0.50;;
55784;SDS011;41709;52.536;5.688;2023-07-29T14:02:26;1.00;;;0.50;;
55784;SDS011;41709;52.536;5.688;2023-07-29T14:04:52;2.42;;;0.80;;
55784;SDS011;41709;52.536;5.688;2023-07-29T14:07:18;1.80;;;0.82;;
55784;SDS011;41709;52.536;5.688;2023-07-29T14:09:43;0.82;;;0.60;;
55784;SDS011;41709;52.536;5.688;2023-07-29T14:12:09;5.90;;;0.80;;
55784;SDS011;41709;52.536;5.688;2023-07-29T14:14:37;1.70;;;0.63;;
55784;SDS011;41709;52.536;5.688;2023-07-29T14:17:03;2.15;;;0.70;;
55784;SDS011;41709;52.536;5.688;2023-07-29T14:19:29;2.20;;;0.90;;
55784;SDS011;41709;52.536;5.688;2023-07-29T14:21:56;1.73;;;0.73;;
55784;SDS011;41709;52.536;5.688;2023-07-29T14:24:22;3.08;;;0.70;;
55784;SDS011;41709;52.536;5.688;2023-07-29T14:26:47;1.55;;;1.10;;
55784;SDS011;41709;52.536;5.688;2023-07-29T14:29:13;3.90;;;0.70;;
55784;SDS011;41709;52.536;5.688;2023-07-29T14:31:38;1.90;;;0.88;;
55784;SDS011;41709;52.536;5.688;2023-07-29T14:34:04;1.88;;;0.82;;
55784;SDS011;41709;52.536;5.688;2023-07-29T14:36:30;1.05;;;0.82;;
55784;SDS011;41709;52.536;5.688;2023-07-29T14:38:55;2.15;;;0.85;;
55784;SDS011;41709;52.536;5.688;2023-07-29T14:41:21;1.95;;;0.90;;
55784;SDS011;41709;52.536;5.688;2023-07-29T14:43:46;1.60;;;0.70;;
55784;SDS011;41709;52.536;5.688;2023-07-29T14:46:12;3.33;;;0.80;;
55784;SDS011;41709;52.536;5.688;2023-07-29T14:48:37;3.50;;;0.82;;
55784;SDS011;41709;52.536;5.688;2023-07-29T14:51:03;1.25;;;0.68;;
55784;SDS011;41709;52.536;5.688;2023-07-29T14:53:28;3.40;;;0.77;;
55784;SDS011;41709;52.536;5.688;2023-07-29T14:55:54;0.70;;;0.70;;
55784;SDS011;41709;52.536;5.688;2023-07-29T14:58:20;4.25;;;0.80;;